Time;durP1;ratioP1;P1;durP2;ratioP2;P2;SDS_P1;SDS_P2;PMS_P1;PMS_P2;Temp;Humidity;BMP_temperature;BMP_pressure;BME280_temperature;BME280_humidity;BME280_pressure;Samples;Min_cycle;Max_cycle;Signal;HPM_P1;HPM_P2
2023/01/23 00:01:04;;;;;;;35.90;15.88;;;;;;;3.69;100.00;103060.34;5027091;28;20052;-75
2023/01/23 00:03:31;;;;;;;36.45;16.75;;;;;;;3.71;100.00;103063.56;5022263;28;20044;-75
2023/01/23 00:05:58;;;;;;;35.72;14.57;;;;;;;3.70;100.00;103055.66;5029406;28;20041;-76
2023/01/23 00:08:25;;;;;;;36.65;15.85;;;;;;;3.71;100.00;103062.78;5030630;28;20044;-75
2023/01/23 00:10:52;;;;;;;33.28;14.15;;;;;;;3.69;100.00;103063.06;5025099;28;20098;-74
2023/01/23 00:13:19;;;;;;;35.53;14.88;;;;;;;3.68;100.00;103068.84;5034073;28;20049;-76
2023/01/23 00:15:46;;;;;;;38.15;17.52;;;;;;;3.70;100.00;103059.22;5029028;28;20519;-75
2023/01/23 00:18:13;;;;;;;36.90;16.67;;;;;;;3.70;100.00;103058.41;5025818;28;20167;-75
2023/01/23 00:20:40;;;;;;;38.47;17.95;;;;;;;3.67;100.00;103057.06;5028941;28;20049;-75
2023/01/23 00:23:07;;;;;;;38.00;17.45;;;;;;;3.72;100.00;103062.50;5028491;28;20048;-74
2023/01/23 00:25:35;;;;;;;37.40;17.02;;;;;;;3.72;100.00;103065.22;5018786;28;20579;-75
2023/01/23 00:28:02;;;;;;;38.25;17.38;;;;;;;3.69;100.00;103060.34;5029668;28;20052;-75
2023/01/23 00:30:28;;;;;;;38.80;17.08;;;;;;;3.70;100.00;103061.13;5026804;28;20068;-76
2023/01/23 00:32:55;;;;;;;37.53;17.25;;;;;;;3.70;100.00;103050.19;5022837;28;20222;-73
2023/01/23 00:35:21;;;;;;;35.53;17.55;;;;;;;3.69;100.00;103054.03;5022582;28;20061;-73
2023/01/23 00:37:48;;;;;;;33.78;15.90;;;;;;;3.69;100.00;103049.38;5028976;28;20052;-76
2023/01/23 00:40:15;;;;;;;34.25;15.85;;;;;;;3.69;100.00;103049.38;5027754;28;20058;-76
2023/01/23 00:42:41;;;;;;;37.50;18.00;;;;;;;3.68;100.00;103057.88;5024196;28;20160;-76
2023/01/23 00:45:08;;;;;;;36.65;17.33;;;;;;;3.70;100.00;103055.66;5028959;28;20044;-76
2023/01/23 00:47:34;;;;;;;34.08;16.30;;;;;;;3.62;100.00;103048.94;5028265;28;20049;-75
2023/01/23 00:50:01;;;;;;;35.83;16.77;;;;;;;3.68;100.00;103053.22;5024685;28;20839;-75
2023/01/23 00:52:28;;;;;;;33.60;15.63;;;;;;;3.70;100.00;103055.66;5024355;28;20227;-75
2023/01/23 00:54:54;;;;;;;35.05;16.42;;;;;;;3.68;100.00;103057.88;5026773;28;20972;-74
2023/01/23 00:57:21;;;;;;;33.60;15.80;;;;;;;3.69;100.00;103056.78;5024941;28;20064;-75
2023/01/23 00:59:47;;;;;;;36.17;16.48;;;;;;;3.70;100.00;103066.59;5028640;28;20049;-75
2023/01/23 01:02:14;;;;;;;37.58;16.92;;;;;;;3.65;100.00;103062.00;5028201;28;20064;-74
2023/01/23 01:04:40;;;;;;;36.63;16.95;;;;;;;3.66;100.00;103065.56;5030170;28;20056;-74
2023/01/23 01:07:06;;;;;;;38.55;17.63;;;;;;;3.68;100.00;103068.84;5027635;28;20948;-75
2023/01/23 01:09:33;;;;;;;35.47;16.42;;;;;;;3.70;100.00;103069.34;5024776;28;20077;-75
2023/01/23 01:11:59;;;;;;;36.97;17.40;;;;;;;3.70;100.00;103069.34;5022831;28;20060;-76
2023/01/23 01:14:26;;;;;;;38.90;17.88;;;;;;;3.68;100.00;103063.38;5024569;28;20045;-76
2023/01/23 01:16:52;;;;;;;37.03;17.42;;;;;;;3.66;100.00;103065.56;5027482;28;20053;-77
2023/01/23 01:19:19;;;;;;;36.97;17.23;;;;;;;3.65;100.00;103070.22;5021415;28;20048;-76
2023/01/23 01:21:46;;;;;;;35.72;17.73;;;;;;;3.64;100.00;103084.25;5027838;28;20041;-77
2023/01/23 01:24:12;;;;;;;35.15;16.10;;;;;;;3.63;100.00;103071.63;5029276;28;20048;-76
2023/01/23 01:26:39;;;;;;;39.70;17.85;;;;;;;3.61;100.00;103082.88;5023512;28;20560;-76
2023/01/23 01:29:06;;;;;;;38.80;18.08;;;;;;;3.67;100.00;103092.66;5029535;28;20048;-76
2023/01/23 01:31:32;;;;;;;39.25;15.93;;;;;;;3.65;100.00;103092.13;5028674;28;20084;-76
2023/01/23 01:33:59;;;;;;;35.72;16.05;;;;;;;3.70;100.00;103091.25;5026566;28;20044;-75
2023/01/23 01:36:26;;;;;;;37.97;16.50;;;;;;;3.68;100.00;103090.75;5029754;28;20041;-75
2023/01/23 01:38:52;;;;;;;36.30;17.08;;;;;;;3.69;100.00;103101.41;5026153;28;20393;-75
2023/01/23 01:41:19;;;;;;;36.35;17.77;;;;;;;3.70;100.00;103103.03;5027489;28;20040;-75
2023/01/23 01:43:45;;;;;;;37.95;18.95;;;;;;;3.70;100.00;103105.78;5024145;28;20068;-76
2023/01/23 01:46:18;;;;;;;39.40;16.63;;;;;;;3.69;100.00;103104.16;5028169;28;20056;-75
2023/01/23 01:48:56;;;;;;;35.55;16.67;;;;;;;3.68;100.00;103107.97;5023454;28;20182;-77
2023/01/23 01:51:25;;;;;;;36.30;16.35;;;;;;;3.67;100.00;103111.00;5024655;28;20095;-76
2023/01/23 01:54:01;;;;;;;37.50;16.45;;;;;;;3.67;100.00;103103.63;5025975;28;20900;-77
2023/01/23 01:56:31;;;;;;;39.53;18.10;;;;;;;3.65;100.00;103105.81;5025295;28;20917;-76
2023/01/23 01:59:00;;;;;;;36.42;16.17;;;;;;;3.66;100.00;103104.72;5017605;28;20763;-76
2023/01/23 02:01:27;;;;;;;36.47;16.25;;;;;;;3.69;100.00;103115.09;5023607;28;20053;-75
2023/01/23 02:03:54;;;;;;;36.85;14.80;;;;;;;3.70;100.00;103116.72;5025734;28;20065;-76
2023/01/23 02:06:21;;;;;;;37.10;16.70;;;;;;;3.70;100.00;103113.16;5027410;28;20049;-75
2023/01/23 02:09:03;;;;;;;37.83;16.90;;;;;;;3.68;100.00;103104.44;5019855;28;20897;-76
2023/01/23 02:11:30;;;;;;;34.83;15.60;;;;;;;3.70;100.00;103105.78;5019530;28;20497;-75
2023/01/23 02:13:56;;;;;;;35.10;15.52;;;;;;;3.73;100.00;103116.13;5025933;28;20056;-75
2023/01/23 02:16:28;;;;;;;36.25;16.92;;;;;;;3.69;100.00;103112.38;5029086;28;20048;-75
2023/01/23 02:19:00;;;;;;;33.33;15.07;;;;;;;3.69;100.00;103112.38;5024272;28;20059;-75
2023/01/23 02:21:28;;;;;;;35.85;16.38;;;;;;;3.67;100.00;103100.88;5026197;28;20041;-76
2023/01/23 02:24:00;;;;;;;35.63;16.80;;;;;;;3.69;100.00;103108.81;5019030;28;20044;-77
2023/01/23 02:26:31;;;;;;;36.45;16.88;;;;;;;3.70;100.00;103104.94;5026888;28;20159;-75
2023/01/23 02:28:58;;;;;;;33.45;15.90;;;;;;;3.68;100.00;103096.22;5025821;28;20051;-75
2023/01/23 02:31:25;;;;;;;34.85;16.38;;;;;;;3.69;100.00;103097.84;5023734;28;20045;-75
2023/01/23 02:33:56;;;;;;;38.92;16.73;;;;;;;3.71;100.00;103098.38;5024589;28;20076;-75
2023/01/23 02:36:27;;;;;;;37.05;16.15;;;;;;;3.60;100.00;103092.22;5023645;28;20550;-75
2023/01/23 02:39:12;;;;;;;33.58;16.98;;;;;;;3.67;100.00;103103.63;5024165;28;20053;-75
2023/01/23 02:41:44;;;;;;;39.42;18.45;;;;;;;3.68;100.00;103102.50;5030093;28;20047;-75
2023/01/23 02:44:11;;;;;;;35.70;17.08;;;;;;;3.67;100.00;103097.31;5027805;28;20048;-75
2023/01/23 02:46:37;;;;;;;31.98;12.95;;;;;;;3.64;100.00;103079.56;5027352;28;20227;-75
2023/01/23 02:49:04;;;;;;;32.70;14.65;;;;;;;3.67;100.00;103080.88;5030912;28;20140;-73
2023/01/23 02:51:31;;;;;;;36.95;18.13;;;;;;;3.64;100.00;103076.81;5023515;28;20045;-76
2023/01/23 02:53:58;;;;;;;39.97;17.08;;;;;;;3.64;100.00;103082.28;5044654;28;20064;-74
2023/01/23 02:56:24;;;;;;;32.60;14.82;;;;;;;3.63;100.00;103075.19;5048196;28;20049;-73
2023/01/23 03:01:36;;;;;;;40.53;16.70;;;;;;;3.64;100.00;103078.75;5045934;28;20041;-73
2023/01/23 03:04:05;;;;;;;31.25;14.20;;;;;;;3.61;100.00;103074.66;5046394;28;20041;-75
2023/01/23 03:06:36;;;;;;;35.50;15.20;;;;;;;3.58;100.00;103061.56;5048079;28;20562;-73
2023/01/23 03:09:09;;;;;;;38.40;17.20;;;;;;;3.64;100.00;103074.09;5047430;28;20075;-74
2023/01/23 03:11:38;;;;;;;33.00;15.35;;;;;;;3.62;100.00;103078.22;5048324;28;20037;-74
2023/01/23 03:14:06;;;;;;;38.95;18.45;;;;;;;3.58;100.00;103088.16;5046804;28;20053;-74
2023/01/23 03:16:33;;;;;;;39.55;17.77;;;;;;;3.61;100.00;103090.28;5047922;28;20512;-75
2023/01/23 03:19:07;;;;;;;37.85;16.88;;;;;;;3.63;100.00;103101.75;5048083;28;20561;-75
2023/01/23 03:21:39;;;;;;;33.63;17.08;;;;;;;3.62;100.00;103100.13;5045889;28;20049;-76
2023/01/23 03:24:08;;;;;;;37.15;16.30;;;;;;;3.65;100.00;103102.28;5041996;28;20041;-75
2023/01/23 03:26:40;;;;;;;35.17;16.13;;;;;;;3.63;100.00;103101.75;5048716;28;20049;-74
2023/01/23 03:31:56;;;;;;;36.17;14.77;;;;;;;3.67;100.00;103114.56;5045396;28;20074;-75
2023/01/23 03:34:23;;;;;;;36.53;16.73;;;;;;;3.66;100.00;103114.84;5047236;28;20087;-73
2023/01/23 03:36:49;;;;;;;38.72;16.65;;;;;;;3.63;100.00;103110.78;5047009;28;20053;-74
2023/01/23 03:42:01;;;;;;;34.15;16.23;;;;;;;3.65;100.00;103124.19;5048245;28;20056;-76
2023/01/23 03:44:27;;;;;;;38.78;16.63;;;;;;;3.63;100.00;103127.22;5048089;28;20045;-75
2023/01/23 03:46:54;;;;;;;35.25;16.27;;;;;;;3.63;100.00;103132.69;5048750;28;20055;-74
2023/01/23 03:49:20;;;;;;;35.88;16.48;;;;;;;3.65;100.00;103130.47;5051834;28;20040;-76
2023/01/23 03:51:47;;;;;;;36.10;16.20;;;;;;;3.64;100.00;103131.59;5043811;28;20032;-76
2023/01/23 03:54:14;;;;;;;35.55;16.25;;;;;;;3.67;100.00;103127.44;5050903;28;20055;-76
2023/01/23 03:56:41;;;;;;;37.15;16.63;;;;;;;3.64;100.00;103125.31;5050321;28;20492;-76
2023/01/23 03:59:08;;;;;;;34.83;15.98;;;;;;;3.67;100.00;103128.25;5050387;28;20056;-75
2023/01/23 04:01:35;;;;;;;37.00;16.85;;;;;;;3.65;100.00;103129.66;5051435;28;20608;-75
2023/01/23 04:04:02;;;;;;;40.47;17.23;;;;;;;3.66;100.00;103128.56;5050945;28;20053;-75
2023/01/23 04:06:29;;;;;;;34.05;15.55;;;;;;;3.66;100.00;103121.16;5049974;28;20045;-73
2023/01/23 04:08:57;;;;;;;32.90;14.45;;;;;;;3.63;100.00;103112.69;5050759;28;20407;-74
2023/01/23 04:11:25;;;;;;;36.13;17.15;;;;;;;3.69;100.00;103120.56;5051125;28;20037;-76
2023/01/23 04:13:53;;;;;;;36.40;15.77;;;;;;;3.70;100.00;103126.84;5047029;28;20045;-74
2023/01/23 04:16:21;;;;;;;34.28;15.55;;;;;;;3.69;100.00;103123.31;5050633;28;20072;-76
2023/01/23 04:18:49;;;;;;;35.25;16.42;;;;;;;3.70;100.00;103127.69;5042932;28;20048;-76
2023/01/23 04:21:16;;;;;;;36.10;16.42;;;;;;;3.70;100.00;103132.31;5048360;28;20055;-76
2023/01/23 04:23:42;;;;;;;35.83;17.02;;;;;;;3.70;100.00;103126.84;5048095;28;20085;-76
2023/01/23 04:26:09;;;;;;;35.67;16.00;;;;;;;3.69;100.00;103131.53;5046203;28;20051;-76
2023/01/23 04:28:35;;;;;;;35.92;17.05;;;;;;;3.69;100.00;103130.72;5045226;28;20049;-76
2023/01/23 04:31:02;;;;;;;34.45;16.48;;;;;;;3.70;100.00;103135.06;5047979;28;20059;-73
2023/01/23 04:33:29;;;;;;;35.78;16.02;;;;;;;3.67;100.00;103131.00;5044576;28;20499;-75
2023/01/23 04:35:59;;;;;;;33.60;15.43;;;;;;;3.68;100.00;103145.50;5044609;28;20045;-74
2023/01/23 04:38:27;;;;;;;31.65;14.40;;;;;;;3.69;100.00;103138.91;5044673;28;20422;-74
2023/01/23 04:40:54;;;;;;;33.35;14.15;;;;;;;3.68;100.00;103142.78;5041060;28;20045;-74
2023/01/23 04:43:21;;;;;;;35.00;15.93;;;;;;;3.67;100.00;103130.16;5045991;28;20383;-77
2023/01/23 04:45:52;;;;;;;33.08;15.77;;;;;;;3.67;100.00;103141.94;5046949;28;20473;-74
2023/01/23 04:48:18;;;;;;;35.28;15.40;;;;;;;3.68;100.00;103134.56;5050875;28;20041;-75
2023/01/23 04:50:45;;;;;;;30.83;13.80;;;;;;;3.65;100.00;103135.16;5049398;28;20044;-73
2023/01/23 04:53:12;;;;;;;35.10;17.30;;;;;;;3.62;100.00;103133.00;5048347;28;20045;-76
2023/01/23 04:55:39;;;;;;;31.95;15.00;;;;;;;3.64;100.00;103131.59;5049543;28;20506;-75
2023/01/23 04:58:06;;;;;;;34.22;16.25;;;;;;;3.68;100.00;103131.81;5050880;28;20410;-74
2023/01/23 05:00:32;;;;;;;32.25;16.02;;;;;;;3.57;100.00;103106.47;5049838;28;20509;-75
2023/01/23 05:03:00;;;;;;;32.55;15.85;;;;;;;3.69;100.00;103128.78;5049439;28;20052;-74
2023/01/23 05:05:26;;;;;;;36.03;15.93;;;;;;;3.67;100.00;103122.78;5048583;28;20044;-74
2023/01/23 05:07:52;;;;;;;34.33;16.80;;;;;;;3.67;100.00;103122.78;5048699;28;20049;-75
2023/01/23 05:10:19;;;;;;;36.47;16.13;;;;;;;3.70;100.00;103126.84;5051190;28;20041;-75
2023/01/23 05:12:46;;;;;;;32.45;15.77;;;;;;;3.71;100.00;103126.56;5047449;28;20107;-74
2023/01/23 05:15:13;;;;;;;39.85;17.00;;;;;;;3.72;100.00;103130.94;5050833;28;20053;-74
2023/01/23 05:17:39;;;;;;;35.20;15.85;;;;;;;3.71;100.00;103136.72;5049724;28;20049;-74
2023/01/23 05:20:06;;;;;;;38.58;17.20;;;;;;;3.71;100.00;103131.25;5043918;28;20468;-74
2023/01/23 05:22:33;;;;;;;34.80;15.30;;;;;;;3.69;100.00;103136.19;5046462;28;20402;-75
2023/01/23 05:25:00;;;;;;;30.30;14.02;;;;;;;3.69;100.00;103145.22;5045306;28;20056;-75
2023/01/23 05:27:26;;;;;;;35.40;16.38;;;;;;;3.68;100.00;103142.78;5048158;28;20052;-75
2023/01/23 05:29:53;;;;;;;34.83;15.93;;;;;;;3.69;100.00;103144.41;5049676;28;20049;-74
2023/01/23 05:32:19;;;;;;;37.17;15.95;;;;;;;3.67;100.00;103149.34;5047082;28;20498;-77
2023/01/23 05:34:46;;;;;;;34.95;15.30;;;;;;;3.68;100.00;103145.50;5048227;28;20055;-74
2023/01/23 05:37:12;;;;;;;37.47;16.88;;;;;;;3.72;100.00;103149.28;5049289;28;20056;-74
2023/01/23 05:39:39;;;;;;;34.47;15.32;;;;;;;3.69;100.00;103149.88;5047514;28;20063;-75
2023/01/23 05:42:05;;;;;;;39.33;16.23;;;;;;;3.67;100.00;103150.16;5044778;28;20063;-75
2023/01/23 05:44:32;;;;;;;35.58;14.85;;;;;;;3.66;100.00;103147.72;5048626;28;20158;-77
2023/01/23 05:46:58;;;;;;;40.58;17.35;;;;;;;3.69;100.00;103155.34;5047073;28;20051;-75
2023/01/23 05:49:25;;;;;;;38.28;16.52;;;;;;;3.71;100.00;103162.16;5047134;28;20199;-75
2023/01/23 05:51:51;;;;;;;40.20;16.80;;;;;;;3.70;100.00;103157.78;5048558;28;20394;-75
2023/01/23 05:54:18;;;;;;;32.58;14.50;;;;;;;3.71;100.00;103161.38;5047934;28;20049;-74
2023/01/23 05:56:44;;;;;;;33.83;15.50;;;;;;;3.70;100.00;103159.72;5046528;28;20510;-74
2023/01/23 05:59:11;;;;;;;38.58;17.67;;;;;;;3.67;100.00;103161.13;5049472;28;20041;-74
2023/01/23 06:01:37;;;;;;;39.28;16.67;;;;;;;3.67;100.00;103168.50;5049885;28;20051;-74
2023/01/23 06:04:04;;;;;;;37.05;16.95;;;;;;;3.67;100.00;103165.75;5048827;28;20049;-75
2023/01/23 06:06:30;;;;;;;39.40;16.75;;;;;;;3.68;100.00;103167.41;5047521;28;20052;-76
2023/01/23 06:08:58;;;;;;;34.00;15.50;;;;;;;3.69;100.00;103169.88;5048669;28;20043;-75
2023/01/23 06:11:25;;;;;;;37.33;15.80;;;;;;;3.71;100.00;103173.13;5049519;28;20052;-75
2023/01/23 06:13:51;;;;;;;35.22;15.75;;;;;;;3.71;100.00;103167.63;5047986;28;20049;-74
2023/01/23 06:16:18;;;;;;;39.95;18.67;;;;;;;3.70;100.00;103168.75;5045567;28;20049;-76
2023/01/23 06:18:44;;;;;;;36.92;14.93;;;;;;;3.72;100.00;103169.28;5048010;28;20072;-74
2023/01/23 06:21:11;;;;;;;40.50;17.15;;;;;;;3.74;100.00;103174.47;5048919;28;20041;-73
2023/01/23 06:23:37;;;;;;;34.88;16.48;;;;;;;3.72;100.00;103180.25;5048195;28;20071;-74
2023/01/23 06:26:04;;;;;;;39.85;15.88;;;;;;;3.73;100.00;103172.81;5038880;28;20061;-74
2023/01/23 06:28:30;;;;;;;38.17;14.88;;;;;;;3.72;100.00;103180.25;5046821;28;20049;-74
2023/01/23 06:31:02;;;;;;;36.78;14.35;;;;;;;3.72;100.00;103185.72;5047976;28;20037;-75
2023/01/23 06:33:29;;;;;;;31.92;12.30;;;;;;;3.74;100.00;103183.47;5046418;28;20068;-74
2023/01/23 06:36:00;;;;;;;36.08;16.15;;;;;;;3.72;100.00;103180.25;5044230;28;20507;-75
2023/01/23 06:38:28;;;;;;;37.08;16.63;;;;;;;3.72;100.00;103193.94;5059832;28;20712;-74
2023/01/23 06:40:54;;;;;;;35.30;16.02;;;;;;;3.72;100.00;103193.94;5047759;28;20045;-74
2023/01/23 06:43:22;;;;;;;41.03;15.75;;;;;;;3.72;100.00;103184.88;5046754;28;20049;-75
2023/01/23 06:45:48;;;;;;;32.22;14.88;;;;;;;3.72;100.00;103196.66;5044152;28;20136;-76
2023/01/23 06:48:15;;;;;;;37.83;16.05;;;;;;;3.76;100.00;103197.72;5043686;28;20045;-75
2023/01/23 06:50:42;;;;;;;37.67;16.15;;;;;;;3.74;100.00;103199.91;5043525;28;20049;-75
2023/01/23 06:53:13;;;;;;;36.20;16.35;;;;;;;3.79;100.00;103210.00;5047084;28;20052;-76
2023/01/23 06:55:39;;;;;;;36.40;15.35;;;;;;;3.78;100.00;103211.13;5044248;28;20045;-76
2023/01/23 06:58:06;;;;;;;35.42;14.40;;;;;;;3.76;100.00;103211.41;5049225;28;20506;-77
2023/01/23 07:00:33;;;;;;;33.10;15.02;;;;;;;3.76;100.00;103213.31;5048872;28;20048;-75
2023/01/23 07:03:02;;;;;;;37.60;17.00;;;;;;;3.79;100.00;103226.44;5043080;28;20049;-75
2023/01/23 07:05:30;;;;;;;36.30;16.75;;;;;;;3.77;100.00;103229.47;5044579;28;20520;-74
2023/01/23 07:07:56;;;;;;;38.38;15.77;;;;;;;3.77;100.00;103231.38;5043390;28;20057;-76
2023/01/23 07:10:25;;;;;;;34.58;15.32;;;;;;;3.76;100.00;103235.22;5046787;28;20064;-74
2023/01/23 07:12:51;;;;;;;34.65;16.27;;;;;;;3.74;100.00;103231.97;5044614;28;20045;-74
2023/01/23 07:15:18;;;;;;;36.13;16.55;;;;;;;3.74;100.00;103232.78;5048107;28;20049;-76
2023/01/23 07:17:44;;;;;;;33.83;15.02;;;;;;;3.75;100.00;103236.34;5043860;28;20048;-76
2023/01/23 07:20:11;;;;;;;37.28;16.38;;;;;;;3.74;100.00;103242.94;5047746;28;20049;-75
2023/01/23 07:22:37;;;;;;;31.35;12.95;;;;;;;3.77;100.00;103251.38;5055414;28;20051;-72
2023/01/23 07:25:04;;;;;;;30.80;14.48;;;;;;;3.78;100.00;103242.03;5051262;28;20430;-73
2023/01/23 07:27:32;;;;;;;32.22;14.55;;;;;;;3.79;100.00;103242.88;5051753;28;20606;-74
2023/01/23 07:29:58;;;;;;;32.65;13.05;;;;;;;3.74;100.00;103241.00;5051687;28;20154;-74
2023/01/23 07:32:25;;;;;;;35.70;16.00;;;;;;;3.78;100.00;103247.53;5048924;28;20045;-75
2023/01/23 07:34:52;;;;;;;38.72;16.70;;;;;;;3.77;100.00;103254.09;5051062;28;20402;-74
2023/01/23 07:37:18;;;;;;;38.88;17.55;;;;;;;3.77;100.00;103253.28;5049172;28;20506;-76
2023/01/23 07:39:44;;;;;;;36.70;15.63;;;;;;;3.79;100.00;103253.81;5050705;28;20045;-76
2023/01/23 07:42:11;;;;;;;35.45;14.85;;;;;;;3.82;100.00;103264.19;5049065;28;20052;-75
2023/01/23 07:44:37;;;;;;;37.92;15.27;;;;;;;3.82;100.00;103259.53;5043401;28;20056;-72
2023/01/23 07:47:04;;;;;;;34.30;13.82;;;;;;;3.86;100.00;103257.84;5050946;28;20052;-72
2023/01/23 07:49:30;;;;;;;35.35;14.52;;;;;;;3.89;100.00;103261.94;5051533;28;20045;-75
2023/01/23 07:51:57;;;;;;;34.33;16.35;;;;;;;3.87;100.00;103273.16;5051650;28;20047;-74
2023/01/23 07:54:23;;;;;;;35.50;15.75;;;;;;;3.90;100.00;103275.34;5049235;28;20045;-76
2023/01/23 07:56:50;;;;;;;34.17;14.98;;;;;;;3.90;100.00;103269.84;5052161;28;20429;-75
2023/01/23 07:59:16;;;;;;;29.35;11.85;;;;;;;3.87;100.00;103262.22;5053117;28;20063;-75
2023/01/23 08:01:43;;;;;;;30.17;12.98;;;;;;;3.85;100.00;103264.41;5050627;28;20049;-74
2023/01/23 08:04:10;;;;;;;38.72;14.35;;;;;;;3.90;100.00;103278.06;5049541;28;20049;-73
2023/01/23 08:06:37;;;;;;;38.25;16.88;;;;;;;3.90;100.00;103274.50;5047107;28;20091;-74
2023/01/23 08:09:03;;;;;;;32.67;15.80;;;;;;;3.90;100.00;103269.84;5051625;28;20068;-75
2023/01/23 08:11:30;;;;;;;33.25;14.25;;;;;;;3.91;100.00;103263.25;5051275;28;20045;-76
2023/01/23 08:13:59;;;;;;;34.40;14.13;;;;;;;3.89;100.00;103265.50;5049537;28;20156;-75
2023/01/23 08:16:26;;;;;;;33.78;14.45;;;;;;;3.88;100.00;103260.31;5046814;28;20446;-79
2023/01/23 08:18:53;;;;;;;35.08;14.77;;;;;;;3.92;100.00;103270.38;5046910;28;20048;-76
2023/01/23 08:21:20;;;;;;;36.53;15.00;;;;;;;3.93;100.00;103268.44;5050568;28;20053;-76
2023/01/23 08:23:46;;;;;;;36.88;16.08;;;;;;;3.93;100.00;103272.00;5047305;28;20041;-77
2023/01/23 08:26:15;;;;;;;33.70;14.63;;;;;;;3.96;100.00;103276.09;5048469;28;20048;-75
2023/01/23 08:28:43;;;;;;;32.78;14.55;;;;;;;3.96;100.00;103273.34;5047996;28;21279;-74
2023/01/23 08:31:11;;;;;;;32.83;15.25;;;;;;;3.97;100.00;103278.53;5049304;28;20055;-74
2023/01/23 08:33:38;;;;;;;34.92;14.80;;;;;;;3.96;100.00;103284.31;5048619;28;20578;-75
2023/01/23 08:36:06;;;;;;;38.15;15.80;;;;;;;3.97;100.00;103291.41;5050231;28;20128;-75
2023/01/23 08:38:36;;;;;;;35.65;16.17;;;;;;;4.01;100.00;103286.97;5049739;28;20084;-76
2023/01/23 08:41:03;;;;;;;37.13;15.20;;;;;;;3.99;100.00;103283.72;5047266;28;20404;-75
2023/01/23 08:43:30;;;;;;;34.83;14.38;;;;;;;3.98;100.00;103288.38;5048073;28;20044;-76
2023/01/23 08:45:58;;;;;;;38.45;15.27;;;;;;;3.95;100.00;103288.97;5047104;28;20128;-75
2023/01/23 08:48:26;;;;;;;32.50;14.40;;;;;;;3.95;100.00;103285.44;5048570;28;20127;-75
2023/01/23 08:50:59;;;;;;;34.72;15.65;;;;;;;3.97;100.00;103292.25;5049485;28;20048;-75
2023/01/23 08:53:26;;;;;;;18.95;6.53;;;;;;;3.93;100.00;103288.44;5046348;28;20148;-77
2023/01/23 08:55:57;;;;;;;38.30;16.17;;;;;;;3.98;100.00;103296.59;5046201;28;20049;-77
2023/01/23 08:58:24;;;;;;;36.33;15.02;;;;;;;4.01;100.00;103297.94;5045642;28;20126;-74
2023/01/23 09:00:51;;;;;;;35.67;14.93;;;;;;;4.02;100.00;103297.66;5042899;28;20040;-74
2023/01/23 09:03:17;;;;;;;34.88;14.93;;;;;;;3.96;100.00;103289.78;5042148;28;20048;-74
2023/01/23 09:05:44;;;;;;;34.20;14.63;;;;;;;4.00;100.00;103299.06;5047084;28;20048;-76
2023/01/23 09:08:10;;;;;;;35.05;15.07;;;;;;;4.01;100.00;103303.41;5050256;28;20040;-74
2023/01/23 09:10:37;;;;;;;36.78;15.43;;;;;;;4.03;100.00;103302.03;5043276;28;20049;-74
2023/01/23 09:13:04;;;;;;;35.05;15.30;;;;;;;4.04;100.00;103289.97;5043379;28;20041;-75
2023/01/23 09:15:31;;;;;;;35.60;15.10;;;;;;;4.06;100.00;103306.13;5046007;28;20486;-75
2023/01/23 09:17:57;;;;;;;32.30;14.40;;;;;;;4.11;100.00;103304.13;5049824;28;20049;-74
2023/01/23 09:20:28;;;;;;;32.78;14.73;;;;;;;4.12;100.00;103308.50;5046991;28;20070;-77
2023/01/23 09:22:54;;;;;;;29.60;12.60;;;;;;;4.14;100.00;103306.28;5048065;28;20041;-73
2023/01/23 09:25:21;;;;;;;33.72;14.32;;;;;;;4.17;100.00;103300.22;5048312;28;20049;-77
2023/01/23 09:27:47;;;;;;;33.03;14.25;;;;;;;4.20;100.00;103310.63;5047183;28;20048;-76
2023/01/23 09:30:14;;;;;;;33.33;14.80;;;;;;;4.28;100.00;103311.88;5042581;28;20053;-77
2023/01/23 09:32:40;;;;;;;29.70;11.60;;;;;;;4.28;100.00;103300.91;5040273;28;20072;-74
2023/01/23 09:35:07;;;;;;;28.10;12.07;;;;;;;4.36;100.00;103306.56;5043200;28;20434;-77
2023/01/23 09:40:27;;;;;;;30.95;11.85;;;;;;;4.42;100.00;103319.09;5042133;28;20045;-75
2023/01/23 09:42:57;;;;;;;28.35;12.18;;;;;;;4.47;100.00;103319.06;5038703;28;20041;-75
2023/01/23 09:45:26;;;;;;;33.88;15.40;;;;;;;4.51;100.00;103320.09;5036646;28;20557;-76
2023/01/23 09:48:17;;;;;;;28.67;9.85;;;;;;;4.52;100.00;103321.72;5039591;28;20056;-75
2023/01/23 09:50:58;;;;;;;27.05;9.82;;;;;;;4.55;100.00;103326.59;5041565;28;20506;-74
2023/01/23 09:53:27;;;;;;;32.42;13.40;;;;;;;4.58;100.00;103320.53;5043211;28;20037;-75
2023/01/23 09:56:13;;;;;;;28.38;12.80;;;;;;;4.59;100.00;103310.41;5044832;28;20491;-75
2023/01/23 09:58:43;;;;;;;28.40;12.93;;;;;;;4.59;100.00;103310.41;5045582;28;20118;-75
2023/01/23 10:01:12;;;;;;;14.95;6.82;;;;;;;4.60;100.00;103312.84;5042571;28;20060;-75
2023/01/23 10:03:39;;;;;;;31.92;13.05;;;;;;;4.65;100.00;103321.00;5040179;28;20106;-76
2023/01/23 10:06:24;;;;;;;28.42;12.63;;;;;;;4.66;100.00;103314.38;5043457;28;20094;-74
2023/01/23 10:08:53;;;;;;;27.58;12.60;;;;;;;4.70;100.00;103322.84;5047831;28;20056;-74
2023/01/23 10:11:37;;;;;;;27.65;11.55;;;;;;;4.73;100.00;103322.28;5046762;28;20048;-75
2023/01/23 10:14:28;;;;;;;26.33;12.38;;;;;;;4.73;100.00;103323.06;5045519;28;20051;-75
2023/01/23 10:17:19;;;;;;;30.38;12.82;;;;;;;4.74;100.00;103324.72;5043595;28;20056;-75
2023/01/23 10:20:24;;;;;;;22.42;10.80;;;;;;;4.74;100.00;103327.47;5043591;28;20472;-75
2023/01/23 10:23:14;;;;;;;25.98;12.48;;;;;;;4.71;100.00;103319.81;5042796;28;20053;-75
2023/01/23 10:25:41;;;;;;;24.88;11.07;;;;;;;4.75;100.00;103328.25;5048103;28;20044;-76
2023/01/23 10:28:26;;;;;;;26.58;12.40;;;;;;;4.78;100.00;103328.50;5043691;28;20482;-76
2023/01/23 10:30:59;;;;;;;30.02;12.50;;;;;;;4.80;100.00;103322.72;5041889;28;20044;-75
2023/01/23 10:33:39;;;;;;;16.58;7.32;;;;;;;4.74;100.00;103319.22;5046061;28;20522;-76
2023/01/23 10:36:37;;;;;;;24.85;11.05;;;;;;;4.81;100.00;103316.09;5045000;28;20377;-78
2023/01/23 10:39:25;;;;;;;22.42;10.50;;;;;;;4.86;100.00;103321.53;5031596;28;20464;-78
2023/01/23 10:41:52;;;;;;;23.92;8.38;;;;;;;4.86;100.00;103321.53;5042898;28;20072;-77
2023/01/23 10:44:27;;;;;;;21.25;9.43;;;;;;;4.93;100.00;103324.72;5044261;28;20041;-76
2023/01/23 10:46:59;;;;;;;25.98;12.02;;;;;;;4.98;100.00;103328.22;5046036;28;20613;-74
2023/01/23 10:49:29;;;;;;;26.92;11.93;;;;;;;4.98;100.00;103330.97;5046787;28;20041;-74
2023/01/23 10:51:56;;;;;;;22.50;9.80;;;;;;;5.05;100.00;103322.34;5046183;28;20045;-74
2023/01/23 10:54:24;;;;;;;25.55;12.02;;;;;;;5.10;100.00;103314.84;5036766;28;20044;-74
2023/01/23 10:57:02;;;;;;;22.98;11.25;;;;;;;5.19;100.00;103314.97;5048953;28;20100;-75
2023/01/23 10:59:38;;;;;;;26.15;10.77;;;;;;;5.24;100.00;103312.16;5048144;28;20332;-76
2023/01/23 11:02:14;;;;;;;25.77;10.07;;;;;;;5.34;100.00;103312.81;5045288;28;20053;-75
2023/01/23 11:04:44;;;;;;;24.85;10.02;;;;;;;5.38;100.00;103318.53;5045565;28;20049;-74
2023/01/23 11:07:15;;;;;;;21.42;8.93;;;;;;;5.41;100.00;103313.22;5050833;28;20045;-76
2023/01/23 11:09:50;;;;;;;22.90;10.35;;;;;;;5.43;100.00;103315.69;5050661;28;20057;-74
2023/01/23 11:12:21;;;;;;;26.77;12.13;;;;;;;5.35;100.00;103308.13;5050184;28;20041;-74
2023/01/23 11:14:48;;;;;;;26.67;11.98;;;;;;;5.34;100.00;103309.25;5042915;28;20053;-76
2023/01/23 11:17:19;;;;;;;22.75;10.77;;;;;;;5.33;100.00;103311.19;5051685;28;20048;-72
2023/01/23 11:19:50;;;;;;;27.30;12.35;;;;;;;5.34;100.00;103306.50;5051102;28;20056;-75
2023/01/23 11:22:27;;;;;;;23.65;10.52;;;;;;;5.31;100.00;103302.41;5022924;28;20215;-76
2023/01/23 11:24:54;;;;;;;26.40;11.65;;;;;;;5.26;100.00;103305.25;5024415;28;20099;-75
2023/01/23 11:27:28;;;;;;;33.30;11.65;;;;;;;5.25;100.00;103306.38;5022211;28;20077;-75